createdAt,value
2019-03-30T00:00:26.879Z,101052.38
2019-03-30T00:04:31.998Z,101047.31
2019-03-30T00:08:36.747Z,101048.88
2019-03-30T00:12:42.012Z,101045.32
2019-03-30T00:16:47.221Z,101047.87
2019-03-30T00:20:52.029Z,101038.81
2019-03-30T00:24:56.788Z,101029.52
2019-03-30T00:29:01.633Z,101027.22
2019-03-30T00:33:06.382Z,101032.34
2019-03-30T00:37:11.125Z,101031.41
2019-03-30T00:41:15.901Z,101027.84
2019-03-30T00:45:20.646Z,101024.17
2019-03-30T00:49:25.487Z,101033.48
2019-03-30T00:53:30.235Z,101034.10
2019-03-30T00:57:35.099Z,101026.05
2019-03-30T01:01:39.859Z,101027.60
2019-03-30T01:05:44.559Z,101024.31
2019-03-30T01:09:49.291Z,101028.09
2019-03-30T01:13:54.048Z,101019.63
2019-03-30T01:17:59.188Z,101025.17
2019-03-30T01:22:04.103Z,101031.84
2019-03-30T01:26:08.815Z,101026.15
2019-03-30T01:30:23.038Z,101023.25
2019-03-30T01:34:20.088Z,101018.26
2019-03-30T01:38:24.849Z,101016.37
2019-03-30T01:42:29.770Z,101006.77
2019-03-30T01:46:34.519Z,101005.58
2019-03-30T01:50:39.269Z,101007.19
2019-03-30T01:54:44.030Z,101002.81
2019-03-30T01:58:48.765Z,101003.53
2019-03-30T02:02:53.509Z,101005.72
2019-03-30T02:06:58.255Z,101010.06
2019-03-30T02:11:03.493Z,101005.65
2019-03-30T02:15:08.942Z,101000.03
2019-03-30T02:19:13.705Z,101001.80
2019-03-30T02:23:18.465Z,101003.17
2019-03-30T02:27:23.186Z,100997.06
2019-03-30T02:31:28.005Z,101007.09
2019-03-30T02:35:32.927Z,100995.81
2019-03-30T02:39:37.657Z,101002.64
2019-03-30T02:43:42.398Z,100999.41
2019-03-30T02:47:47.474Z,100997.80
2019-03-30T02:51:52.259Z,100991.06
2019-03-30T02:55:56.972Z,100993.91
2019-03-30T03:00:01.849Z,100988.80
2019-03-30T03:04:06.546Z,100995.14
2019-03-30T03:08:13.929Z,100988.63
2019-03-30T03:12:18.696Z,100988.41
2019-03-30T03:16:27.105Z,100992.33
2019-03-30T03:20:30.909Z,100988.55
2019-03-30T03:24:35.632Z,100989.64
2019-03-30T03:28:40.395Z,100991.83
2019-03-30T03:32:45.493Z,100992.25
2019-03-30T03:36:50.340Z,100995.68
2019-03-30T03:40:55.124Z,100995.08
2019-03-30T03:44:59.842Z,100990.42
2019-03-30T03:49:04.592Z,100987.67
2019-03-30T03:53:10.312Z,100989.66
2019-03-30T03:57:16.715Z,100994.42
2019-03-30T04:01:23.025Z,100992.69
2019-03-30T04:05:29.270Z,100994.20
2019-03-30T04:09:36.550Z,100984.92
2019-03-30T04:13:43.237Z,100990.11
2019-03-30T04:17:47.990Z,100985.56
2019-03-30T04:21:52.744Z,100994.16
2019-03-30T04:25:57.509Z,100986.72
2019-03-30T04:30:02.302Z,100987.92
2019-03-30T04:34:07.051Z,100986.47
2019-03-30T04:38:14.266Z,100994.66
2019-03-30T04:42:18.268Z,100993.13
2019-03-30T04:46:23.019Z,100997.60
2019-03-30T04:50:27.770Z,100993.55
2019-03-30T04:54:32.527Z,100997.88
2019-03-30T04:58:37.330Z,101004.48
2019-03-30T05:02:42.074Z,101002.25
2019-03-30T05:06:46.833Z,101008.52
2019-03-30T05:10:51.589Z,101001.35
2019-03-30T05:14:56.375Z,101004.31
2019-03-30T05:19:01.317Z,101015.30
2019-03-30T05:23:06.109Z,101010.92
2019-03-30T05:27:11.146Z,101011.88
2019-03-30T05:31:15.879Z,101008.15
2019-03-30T05:35:20.820Z,101013.59
2019-03-30T05:39:25.659Z,101008.66
2019-03-30T05:43:30.372Z,101006.73
2019-03-30T05:47:35.275Z,101012.14
2019-03-30T05:51:40.078Z,101012.43
2019-03-30T05:55:44.866Z,101008.31
2019-03-30T05:59:49.658Z,101004.19
2019-03-30T06:03:54.429Z,101004.33
2019-03-30T06:07:59.206Z,100999.85
2019-03-30T06:12:04.503Z,101001.55
2019-03-30T06:16:09.367Z,100998.05
2019-03-30T06:20:14.210Z,101002.09
2019-03-30T06:24:18.960Z,100998.27
2019-03-30T06:28:23.721Z,100995.34
2019-03-30T06:32:28.778Z,100998.00
2019-03-30T06:36:33.534Z,100994.08
2019-03-30T06:40:38.480Z,100993.39
2019-03-30T06:44:43.210Z,100995.19
2019-03-30T06:48:47.982Z,100996.60
2019-03-30T06:52:58.018Z,100987.52
2019-03-30T06:56:59.388Z,100985.87
2019-03-30T07:01:04.198Z,100985.39
2019-03-30T07:05:09.676Z,100982.28
2019-03-30T07:09:15.738Z,100985.52
2019-03-30T07:13:20.609Z,100976.58
2019-03-30T07:17:26.484Z,100978.43
2019-03-30T07:21:31.624Z,100971.55
2019-03-30T07:25:37.047Z,100972.55
2019-03-30T07:29:41.863Z,100965.13
2019-03-30T07:33:46.634Z,100969.88
2019-03-30T07:37:51.546Z,100965.88
2019-03-30T07:41:56.586Z,100968.98
2019-03-30T07:46:01.311Z,100970.01
2019-03-30T07:50:06.568Z,100962.20
2019-03-30T07:54:11.367Z,100975.24
2019-03-30T07:58:16.128Z,100972.39
2019-03-30T08:02:21.023Z,100964.31
2019-03-30T08:06:25.983Z,100963.86
2019-03-30T08:10:30.772Z,100966.25
2019-03-30T08:14:35.630Z,100961.36
2019-03-30T08:18:40.469Z,100964.01
2019-03-30T08:22:45.362Z,100961.29
2019-03-30T08:26:50.582Z,100961.06
2019-03-30T08:30:55.364Z,100958.08
2019-03-30T08:35:00.526Z,100946.38
2019-03-30T08:39:06.881Z,100944.47
2019-03-30T08:43:11.671Z,100946.91
2019-03-30T08:47:16.534Z,100943.16
2019-03-30T08:51:21.634Z,100939.93
2019-03-30T08:55:26.442Z,100938.56
2019-03-30T08:59:31.204Z,100935.86
2019-03-30T09:03:35.988Z,100923.41
2019-03-30T09:07:40.781Z,100921.46
2019-03-30T09:11:45.864Z,100923.55
2019-03-30T09:15:50.593Z,100903.97
2019-03-30T09:19:55.374Z,100903.97
2019-03-30T09:24:09.401Z,100903.97
2019-03-30T09:28:06.933Z,100902.00
2019-03-30T09:32:14.569Z,100891.63
2019-03-30T09:36:18.212Z,100889.58
2019-03-30T09:40:22.974Z,100874.02
2019-03-30T09:44:27.758Z,100874.02
2019-03-30T09:48:32.529Z,100867.69
2019-03-30T09:52:37.254Z,100864.75
2019-03-30T09:56:42.534Z,100861.92
2019-03-30T10:00:47.776Z,100849.31
2019-03-30T10:04:53.969Z,100847.25
2019-03-30T10:08:59.113Z,100839.89
2019-03-30T10:13:03.830Z,100836.08
2019-03-30T10:17:08.619Z,100833.52
2019-03-30T10:21:13.395Z,100835.77
2019-03-30T10:25:18.893Z,100830.13
2019-03-30T10:29:25.790Z,100825.83
2019-03-30T10:33:32.469Z,100817.09
2019-03-30T10:37:38.084Z,100809.66
2019-03-30T10:41:42.862Z,100803.59
2019-03-30T10:45:47.789Z,100793.92
2019-03-30T10:49:53.153Z,100782.91
2019-03-30T10:53:58.020Z,100778.97
2019-03-30T10:58:03.339Z,100762.67
2019-03-30T11:02:08.086Z,100762.66
2019-03-30T11:06:13.088Z,100760.91
2019-03-30T11:10:18.225Z,100750.30
2019-03-30T11:14:23.179Z,100749.42
2019-03-30T11:18:28.326Z,100738.81
2019-03-30T11:22:33.735Z,100740.57
2019-03-30T11:26:38.604Z,100731.27
2019-03-30T11:30:43.481Z,100723.72
2019-03-30T11:34:48.244Z,100710.03
2019-03-30T11:38:53.157Z,100712.69
2019-03-30T11:42:57.909Z,100705.60
2019-03-30T11:47:02.959Z,100695.40
2019-03-30T11:51:07.808Z,100682.12
2019-03-30T11:55:21.839Z,100677.63
2019-03-30T11:59:20.119Z,100680.74
2019-03-30T12:03:24.896Z,100674.50
2019-03-30T12:07:32.260Z,100667.81
2019-03-30T12:11:38.550Z,100665.98
2019-03-30T12:15:43.305Z,100648.72
2019-03-30T12:19:48.200Z,100652.66
2019-03-30T12:23:52.967Z,100652.62
2019-03-30T12:27:58.159Z,100643.73
2019-03-30T12:32:02.910Z,100634.40
2019-03-30T12:36:08.153Z,100635.26
2019-03-30T12:40:13.700Z,100637.85
2019-03-30T12:44:18.445Z,100624.56
2019-03-30T12:48:23.197Z,100616.99
2019-03-30T12:52:27.959Z,100601.05
2019-03-30T12:56:32.681Z,100601.06
2019-03-30T13:00:37.589Z,100591.27
2019-03-30T13:04:42.331Z,100591.98
2019-03-30T13:08:47.189Z,100583.97
2019-03-30T13:12:51.957Z,100593.28
2019-03-30T13:16:57.691Z,100585.69
2019-03-30T13:21:04.193Z,100580.34
2019-03-30T13:25:09.586Z,100572.34
2019-03-30T13:29:15.104Z,100571.81
2019-03-30T13:33:19.950Z,100554.88
2019-03-30T13:37:24.715Z,100547.77
2019-03-30T13:41:29.492Z,100542.42
2019-03-30T13:45:34.378Z,100539.30
2019-03-30T13:49:39.085Z,100531.31
2019-03-30T13:53:43.889Z,100525.03
2019-03-30T13:57:48.674Z,100524.19
2019-03-30T14:01:53.808Z,100517.95
2019-03-30T14:05:58.565Z,100517.49
2019-03-30T14:10:03.428Z,100508.98
2019-03-30T14:14:08.713Z,100498.34
2019-03-30T14:18:13.589Z,100500.52
2019-03-30T14:22:18.456Z,100498.77
2019-03-30T14:26:31.210Z,100489.50
2019-03-30T14:30:29.828Z,100485.92
2019-03-30T14:34:34.572Z,100486.77
2019-03-30T14:38:39.323Z,100480.56
2019-03-30T14:42:44.107Z,100478.79
2019-03-30T14:46:48.980Z,100468.11
2019-03-30T14:50:53.730Z,100465.04
2019-03-30T14:54:58.518Z,100462.79
2019-03-30T14:59:09.911Z,100456.13
2019-03-30T15:03:09.853Z,100445.45
2019-03-30T15:07:14.594Z,100434.77
2019-03-30T15:11:19.413Z,100440.52
2019-03-30T15:15:24.168Z,100433.00
2019-03-30T15:19:28.935Z,100426.82
2019-03-30T15:23:33.699Z,100425.03
2019-03-30T15:27:38.596Z,100412.20
2019-03-30T15:31:43.321Z,100417.98
2019-03-30T15:35:48.200Z,100406.48
2019-03-30T15:39:53.069Z,100406.01
2019-03-30T15:43:57.803Z,100407.81
2019-03-30T15:48:02.974Z,100406.05
2019-03-30T15:52:13.741Z,100406.06
2019-03-30T15:56:14.634Z,100395.40
2019-03-30T16:00:19.577Z,100397.58
2019-03-30T16:04:24.324Z,100394.53
2019-03-30T16:08:29.101Z,100387.44
2019-03-30T16:12:33.868Z,100388.75
2019-03-30T16:16:38.636Z,100387.44
2019-03-30T16:20:43.503Z,100392.30
2019-03-30T16:24:48.430Z,100382.59
2019-03-30T16:28:53.270Z,100379.50
2019-03-30T16:32:59.095Z,100381.76
2019-03-30T16:37:03.977Z,100372.02
2019-03-30T16:41:08.827Z,100374.30
2019-03-30T16:45:15.197Z,100372.52
2019-03-30T16:49:20.091Z,100373.89
2019-03-30T16:53:24.930Z,100367.82
2019-03-30T16:57:42.396Z,100365.64
2019-03-30T17:01:36.313Z,100371.48
2019-03-30T17:05:41.180Z,100367.16
2019-03-30T17:09:46.103Z,100363.22
2019-03-30T17:13:50.871Z,100369.08
2019-03-30T17:17:57.369Z,100368.30
2019-03-30T17:22:02.101Z,100356.84
2019-03-30T17:26:07.617Z,100354.74
2019-03-30T17:30:13.347Z,100346.89
2019-03-30T17:34:18.916Z,100346.98
2019-03-30T17:38:23.608Z,100347.09
2019-03-30T17:42:28.320Z,100358.24
2019-03-30T17:46:33.090Z,100356.58
2019-03-30T17:50:37.984Z,100361.55
2019-03-30T17:54:42.753Z,100365.16
2019-03-30T17:58:47.473Z,100366.13
2019-03-30T18:02:52.238Z,100369.34
2019-03-30T18:06:57.060Z,100370.78
2019-03-30T18:11:04.016Z,100373.05
2019-03-30T18:15:09.473Z,100371.31
2019-03-30T18:19:14.331Z,100373.59
2019-03-30T18:23:19.207Z,100370.59
2019-03-30T18:27:23.962Z,100375.57
2019-03-30T18:31:28.696Z,100371.66
2019-03-30T18:35:34.425Z,100377.88
2019-03-30T18:39:39.534Z,100374.83
2019-03-30T18:43:44.323Z,100376.20
2019-03-30T18:47:49.885Z,100385.97
2019-03-30T18:51:55.035Z,100380.67
2019-03-30T18:55:59.794Z,100374.98
2019-03-30T19:00:04.990Z,100378.05
2019-03-30T19:04:09.733Z,100371.91
2019-03-30T19:08:14.469Z,100375.87
2019-03-30T19:12:19.238Z,100362.63
2019-03-30T19:16:24.024Z,100366.14
2019-03-30T19:20:28.833Z,100374.98
2019-03-30T19:24:33.608Z,100374.53
2019-03-30T19:28:38.375Z,100372.33
2019-03-30T19:32:43.146Z,100369.69
2019-03-30T19:36:47.907Z,100375.39
2019-03-30T19:40:52.662Z,100374.03
2019-03-30T19:44:58.139Z,100373.58
2019-03-30T19:49:03.000Z,100371.34
2019-03-30T19:53:07.768Z,100365.13
2019-03-30T19:57:12.573Z,100359.38
2019-03-30T20:01:17.386Z,100362.00
2019-03-30T20:05:22.152Z,100359.73
2019-03-30T20:09:26.912Z,100353.55
2019-03-30T20:13:31.776Z,100342.06
2019-03-30T20:17:36.596Z,100343.76
2019-03-30T20:21:41.471Z,100343.76
2019-03-30T20:25:46.232Z,100337.55
2019-03-30T20:29:50.998Z,100337.09
2019-03-30T20:33:56.198Z,100337.95
2019-03-30T20:38:01.141Z,100328.27
2019-03-30T20:42:06.187Z,100330.87
2019-03-30T20:46:10.974Z,100335.25
2019-03-30T20:50:16.002Z,100329.48
2019-03-30T20:54:20.790Z,100331.44
2019-03-30T20:58:25.551Z,100331.44
2019-03-30T21:02:30.376Z,100330.48
2019-03-30T21:06:35.094Z,100330.48
2019-03-30T21:10:40.304Z,100329.17
2019-03-30T21:14:45.047Z,100316.40
2019-03-30T21:18:49.828Z,100317.29
2019-03-30T21:22:54.591Z,100314.61
2019-03-30T21:26:59.330Z,100314.61
2019-03-30T21:31:04.252Z,100313.66
2019-03-30T21:35:09.617Z,100318.87
2019-03-30T21:39:14.409Z,100321.44
2019-03-30T21:43:19.771Z,100325.39
2019-03-30T21:47:24.668Z,100324.48
2019-03-30T21:51:29.440Z,100323.55
2019-03-30T21:55:34.571Z,100316.42
2019-03-30T21:59:39.358Z,100309.34
2019-03-30T22:03:44.211Z,100311.04
2019-03-30T22:07:49.152Z,100306.16
2019-03-30T22:11:54.015Z,100300.83
2019-03-30T22:15:58.782Z,100299.48
2019-03-30T22:20:05.128Z,100298.17
2019-03-30T22:24:10.001Z,100296.77
2019-03-30T22:28:14.771Z,100297.16
2019-03-30T22:32:19.636Z,100297.55
2019-03-30T22:36:24.774Z,100300.16
2019-03-30T22:40:29.903Z,100298.31
2019-03-30T22:44:34.657Z,100301.75
2019-03-30T22:48:39.428Z,100295.47
2019-03-30T22:52:44.308Z,100298.00
2019-03-30T22:56:49.092Z,100303.11
2019-03-30T23:01:05.851Z,100302.48
2019-03-30T23:05:10.882Z,100298.34
2019-03-30T23:09:15.652Z,100300.05
2019-03-30T23:13:20.378Z,100296.08
2019-03-30T23:17:25.228Z,100292.11
2019-03-30T23:21:30.017Z,100294.25
2019-03-30T23:25:34.821Z,100295.13
2019-03-30T23:29:39.588Z,100294.22
2019-03-30T23:33:44.474Z,100291.16
2019-03-30T23:37:49.584Z,100294.61
2019-03-30T23:41:54.427Z,100296.36
2019-03-30T23:45:59.285Z,100294.59
2019-03-30T23:50:04.103Z,100295.38
2019-03-30T23:54:13.887Z,100289.20
2019-03-30T23:58:18.715Z,100286.98
